sensor_id;sensor_type;location;lat;lon;timestamp;P1;durP1;ratioP1;P2;durP2;ratioP2
4565;SDS011;2295;51.050;14.608;2023-05-16T00:02:20;18.85;;;12.73;;
4565;SDS011;2295;51.050;14.608;2023-05-16T00:04:49;16.45;;;11.43;;
4565;SDS011;2295;51.050;14.608;2023-05-16T00:07:17;17.10;;;10.85;;
4565;SDS011;2295;51.050;14.608;2023-05-16T00:09:45;12.25;;;10.40;;
4565;SDS011;2295;51.050;14.608;2023-05-16T00:12:15;20.00;;;12.60;;
4565;SDS011;2295;51.050;14.608;2023-05-16T00:14:45;22.08;;;12.07;;
4565;SDS011;2295;51.050;14.608;2023-05-16T00:17:13;20.23;;;11.90;;
4565;SDS011;2295;51.050;14.608;2023-05-16T00:19:45;15.05;;;12.15;;
4565;SDS011;2295;51.050;14.608;2023-05-16T00:22:14;22.25;;;12.68;;
4565;SDS011;2295;51.050;14.608;2023-05-16T00:24:42;18.55;;;12.23;;
4565;SDS011;2295;51.050;14.608;2023-05-16T00:27:11;15.95;;;11.80;;
4565;SDS011;2295;51.050;14.608;2023-05-16T00:29:41;18.33;;;11.82;;
4565;SDS011;2295;51.050;14.608;2023-05-16T00:32:09;11.85;;;10.50;;
4565;SDS011;2295;51.050;14.608;2023-05-16T00:34:37;15.30;;;12.68;;
4565;SDS011;2295;51.050;14.608;2023-05-16T00:37:06;15.60;;;11.35;;
4565;SDS011;2295;51.050;14.608;2023-05-16T00:39:34;16.33;;;11.30;;
4565;SDS011;2295;51.050;14.608;2023-05-16T00:42:03;21.95;;;12.70;;
4565;SDS011;2295;51.050;14.608;2023-05-16T00:44:31;16.75;;;11.82;;
4565;SDS011;2295;51.050;14.608;2023-05-16T00:47:01;24.88;;;12.80;;
4565;SDS011;2295;51.050;14.608;2023-05-16T00:49:29;15.15;;;11.65;;
4565;SDS011;2295;51.050;14.608;2023-05-16T00:51:57;15.20;;;11.95;;
4565;SDS011;2295;51.050;14.608;2023-05-16T00:54:26;19.25;;;13.68;;
4565;SDS011;2295;51.050;14.608;2023-05-16T00:56:54;19.67;;;13.85;;
4565;SDS011;2295;51.050;14.608;2023-05-16T00:59:23;22.85;;;11.80;;
4565;SDS011;2295;51.050;14.608;2023-05-16T01:01:52;18.40;;;12.90;;
4565;SDS011;2295;51.050;14.608;2023-05-16T01:04:23;30.05;;;12.93;;
4565;SDS011;2295;51.050;14.608;2023-05-16T01:06:52;18.13;;;12.15;;
4565;SDS011;2295;51.050;14.608;2023-05-16T01:09:21;21.23;;;13.15;;
4565;SDS011;2295;51.050;14.608;2023-05-16T01:11:51;19.33;;;13.23;;
4565;SDS011;2295;51.050;14.608;2023-05-16T01:14:24;20.42;;;13.00;;
4565;SDS011;2295;51.050;14.608;2023-05-16T01:16:58;22.15;;;13.30;;
4565;SDS011;2295;51.050;14.608;2023-05-16T01:19:40;26.58;;;13.38;;
4565;SDS011;2295;51.050;14.608;2023-05-16T01:22:28;18.35;;;13.35;;
4565;SDS011;2295;51.050;14.608;2023-05-16T01:25:10;20.58;;;13.70;;
4565;SDS011;2295;51.050;14.608;2023-05-16T01:27:49;20.88;;;14.07;;
4565;SDS011;2295;51.050;14.608;2023-05-16T01:30:19;25.88;;;14.82;;
4565;SDS011;2295;51.050;14.608;2023-05-16T01:32:48;20.80;;;14.00;;
4565;SDS011;2295;51.050;14.608;2023-05-16T01:35:16;21.30;;;13.80;;
4565;SDS011;2295;51.050;14.608;2023-05-16T01:37:47;22.35;;;14.60;;
4565;SDS011;2295;51.050;14.608;2023-05-16T01:40:24;30.05;;;15.18;;
4565;SDS011;2295;51.050;14.608;2023-05-16T01:42:58;24.15;;;14.38;;
4565;SDS011;2295;51.050;14.608;2023-05-16T01:45:31;29.50;;;16.60;;
4565;SDS011;2295;51.050;14.608;2023-05-16T01:48:03;23.83;;;15.65;;
4565;SDS011;2295;51.050;14.608;2023-05-16T01:50:35;22.80;;;16.35;;
4565;SDS011;2295;51.050;14.608;2023-05-16T01:53:07;26.48;;;16.05;;
4565;SDS011;2295;51.050;14.608;2023-05-16T01:55:45;21.73;;;15.27;;
4565;SDS011;2295;51.050;14.608;2023-05-16T01:58:18;21.23;;;16.50;;
4565;SDS011;2295;51.050;14.608;2023-05-16T02:00:48;22.02;;;15.23;;
4565;SDS011;2295;51.050;14.608;2023-05-16T02:03:16;22.58;;;15.15;;
4565;SDS011;2295;51.050;14.608;2023-05-16T02:05:44;30.65;;;17.27;;
4565;SDS011;2295;51.050;14.608;2023-05-16T02:08:13;26.27;;;18.20;;
4565;SDS011;2295;51.050;14.608;2023-05-16T02:10:41;25.35;;;18.20;;
4565;SDS011;2295;51.050;14.608;2023-05-16T02:13:10;27.08;;;18.10;;
4565;SDS011;2295;51.050;14.608;2023-05-16T02:15:39;24.10;;;17.02;;
4565;SDS011;2295;51.050;14.608;2023-05-16T02:18:07;31.15;;;18.92;;
4565;SDS011;2295;51.050;14.608;2023-05-16T02:20:36;30.00;;;18.95;;
4565;SDS011;2295;51.050;14.608;2023-05-16T02:23:05;33.25;;;18.15;;
4565;SDS011;2295;51.050;14.608;2023-05-16T02:25:33;29.95;;;18.92;;
4565;SDS011;2295;51.050;14.608;2023-05-16T02:28:01;26.50;;;17.67;;
4565;SDS011;2295;51.050;14.608;2023-05-16T02:30:29;29.25;;;18.77;;
4565;SDS011;2295;51.050;14.608;2023-05-16T02:32:59;26.25;;;18.70;;
4565;SDS011;2295;51.050;14.608;2023-05-16T02:35:28;26.02;;;17.35;;
4565;SDS011;2295;51.050;14.608;2023-05-16T02:37:56;22.23;;;16.85;;
4565;SDS011;2295;51.050;14.608;2023-05-16T02:40:24;46.92;;;17.65;;
4565;SDS011;2295;51.050;14.608;2023-05-16T02:42:52;29.23;;;17.92;;
4565;SDS011;2295;51.050;14.608;2023-05-16T02:45:21;30.58;;;18.90;;
4565;SDS011;2295;51.050;14.608;2023-05-16T02:47:49;23.55;;;17.05;;
4565;SDS011;2295;51.050;14.608;2023-05-16T02:50:19;23.83;;;18.45;;
4565;SDS011;2295;51.050;14.608;2023-05-16T02:52:47;29.00;;;19.52;;
4565;SDS011;2295;51.050;14.608;2023-05-16T02:55:16;30.75;;;19.30;;
4565;SDS011;2295;51.050;14.608;2023-05-16T02:57:48;29.70;;;19.77;;
4565;SDS011;2295;51.050;14.608;2023-05-16T03:00:17;23.80;;;17.88;;
4565;SDS011;2295;51.050;14.608;2023-05-16T03:02:46;26.67;;;17.98;;
4565;SDS011;2295;51.050;14.608;2023-05-16T03:05:15;26.65;;;17.58;;
4565;SDS011;2295;51.050;14.608;2023-05-16T03:07:45;28.58;;;16.80;;
4565;SDS011;2295;51.050;14.608;2023-05-16T03:10:13;33.58;;;18.23;;
4565;SDS011;2295;51.050;14.608;2023-05-16T03:12:41;27.23;;;16.85;;
4565;SDS011;2295;51.050;14.608;2023-05-16T03:15:10;22.83;;;16.30;;
4565;SDS011;2295;51.050;14.608;2023-05-16T03:17:38;24.10;;;16.50;;
4565;SDS011;2295;51.050;14.608;2023-05-16T03:20:07;35.13;;;17.60;;
4565;SDS011;2295;51.050;14.608;2023-05-16T03:22:36;27.00;;;16.75;;
4565;SDS011;2295;51.050;14.608;2023-05-16T03:25:07;24.95;;;17.65;;
4565;SDS011;2295;51.050;14.608;2023-05-16T03:27:36;33.83;;;17.65;;
4565;SDS011;2295;51.050;14.608;2023-05-16T03:30:04;26.13;;;18.23;;
4565;SDS011;2295;51.050;14.608;2023-05-16T03:32:34;29.58;;;19.13;;
4565;SDS011;2295;51.050;14.608;2023-05-16T03:35:02;28.77;;;18.73;;
4565;SDS011;2295;51.050;14.608;2023-05-16T03:37:31;29.05;;;19.17;;
4565;SDS011;2295;51.050;14.608;2023-05-16T03:39:59;30.58;;;18.20;;
4565;SDS011;2295;51.050;14.608;2023-05-16T03:42:32;25.33;;;17.70;;
4565;SDS011;2295;51.050;14.608;2023-05-16T03:45:00;28.23;;;17.90;;
4565;SDS011;2295;51.050;14.608;2023-05-16T03:47:28;30.55;;;19.80;;
4565;SDS011;2295;51.050;14.608;2023-05-16T03:49:57;33.00;;;18.95;;
4565;SDS011;2295;51.050;14.608;2023-05-16T03:52:25;28.95;;;18.98;;
4565;SDS011;2295;51.050;14.608;2023-05-16T03:54:54;30.77;;;21.02;;
4565;SDS011;2295;51.050;14.608;2023-05-16T03:57:22;27.50;;;18.60;;
4565;SDS011;2295;51.050;14.608;2023-05-16T03:59:51;34.17;;;21.38;;
4565;SDS011;2295;51.050;14.608;2023-05-16T04:02:20;31.25;;;20.33;;
4565;SDS011;2295;51.050;14.608;2023-05-16T04:04:48;34.38;;;21.88;;
4565;SDS011;2295;51.050;14.608;2023-05-16T04:07:16;34.53;;;21.52;;
4565;SDS011;2295;51.050;14.608;2023-05-16T04:09:48;38.03;;;20.38;;
4565;SDS011;2295;51.050;14.608;2023-05-16T04:12:17;36.38;;;21.75;;
4565;SDS011;2295;51.050;14.608;2023-05-16T04:14:45;34.05;;;21.23;;
4565;SDS011;2295;51.050;14.608;2023-05-16T04:17:15;28.30;;;19.83;;
4565;SDS011;2295;51.050;14.608;2023-05-16T04:19:43;29.98;;;20.75;;
4565;SDS011;2295;51.050;14.608;2023-05-16T04:22:11;35.13;;;19.98;;
4565;SDS011;2295;51.050;14.608;2023-05-16T04:24:40;27.05;;;18.38;;
4565;SDS011;2295;51.050;14.608;2023-05-16T04:27:08;28.60;;;18.50;;
4565;SDS011;2295;51.050;14.608;2023-05-16T04:29:37;26.13;;;17.63;;
4565;SDS011;2295;51.050;14.608;2023-05-16T04:32:06;23.83;;;17.52;;
4565;SDS011;2295;51.050;14.608;2023-05-16T04:34:36;26.70;;;16.60;;
4565;SDS011;2295;51.050;14.608;2023-05-16T04:37:09;23.92;;;17.25;;
4565;SDS011;2295;51.050;14.608;2023-05-16T04:39:37;33.90;;;19.27;;
4565;SDS011;2295;51.050;14.608;2023-05-16T04:42:05;29.23;;;18.13;;
4565;SDS011;2295;51.050;14.608;2023-05-16T04:44:33;29.80;;;17.27;;
4565;SDS011;2295;51.050;14.608;2023-05-16T04:47:02;48.30;;;20.45;;
4565;SDS011;2295;51.050;14.608;2023-05-16T04:49:31;56.63;;;23.77;;
4565;SDS011;2295;51.050;14.608;2023-05-16T04:52:00;50.35;;;22.02;;
4565;SDS011;2295;51.050;14.608;2023-05-16T04:54:29;40.08;;;20.00;;
4565;SDS011;2295;51.050;14.608;2023-05-16T04:56:57;32.65;;;19.90;;
4565;SDS011;2295;51.050;14.608;2023-05-16T04:59:26;30.30;;;19.63;;
4565;SDS011;2295;51.050;14.608;2023-05-16T05:01:54;35.33;;;20.23;;
4565;SDS011;2295;51.050;14.608;2023-05-16T05:04:23;29.90;;;19.48;;
4565;SDS011;2295;51.050;14.608;2023-05-16T05:06:51;29.00;;;19.92;;
4565;SDS011;2295;51.050;14.608;2023-05-16T05:09:21;29.15;;;19.00;;
4565;SDS011;2295;51.050;14.608;2023-05-16T05:11:49;38.20;;;19.83;;
4565;SDS011;2295;51.050;14.608;2023-05-16T05:14:18;52.90;;;22.40;;
4565;SDS011;2295;51.050;14.608;2023-05-16T05:16:46;34.10;;;20.10;;
4565;SDS011;2295;51.050;14.608;2023-05-16T05:19:15;45.92;;;20.98;;
4565;SDS011;2295;51.050;14.608;2023-05-16T05:21:43;27.70;;;20.02;;
4565;SDS011;2295;51.050;14.608;2023-05-16T05:24:11;32.22;;;19.75;;
4565;SDS011;2295;51.050;14.608;2023-05-16T05:26:41;34.78;;;20.35;;
4565;SDS011;2295;51.050;14.608;2023-05-16T05:29:09;31.88;;;19.48;;
4565;SDS011;2295;51.050;14.608;2023-05-16T05:31:37;31.30;;;20.88;;
4565;SDS011;2295;51.050;14.608;2023-05-16T05:34:06;26.30;;;18.67;;
4565;SDS011;2295;51.050;14.608;2023-05-16T05:36:34;28.08;;;19.80;;
4565;SDS011;2295;51.050;14.608;2023-05-16T05:39:02;29.63;;;19.40;;
4565;SDS011;2295;51.050;14.608;2023-05-16T05:41:31;28.98;;;19.58;;
4565;SDS011;2295;51.050;14.608;2023-05-16T05:44:00;38.00;;;20.50;;
4565;SDS011;2295;51.050;14.608;2023-05-16T05:46:29;32.90;;;21.38;;
4565;SDS011;2295;51.050;14.608;2023-05-16T05:48:57;45.85;;;22.50;;
4565;SDS011;2295;51.050;14.608;2023-05-16T05:51:26;36.80;;;22.25;;
4565;SDS011;2295;51.050;14.608;2023-05-16T05:53:54;38.03;;;23.98;;
4565;SDS011;2295;51.050;14.608;2023-05-16T05:56:22;40.00;;;22.67;;
4565;SDS011;2295;51.050;14.608;2023-05-16T05:58:54;38.45;;;21.80;;
4565;SDS011;2295;51.050;14.608;2023-05-16T06:01:23;35.42;;;22.52;;
4565;SDS011;2295;51.050;14.608;2023-05-16T06:03:52;34.95;;;22.60;;
4565;SDS011;2295;51.050;14.608;2023-05-16T06:06:20;36.13;;;21.80;;
4565;SDS011;2295;51.050;14.608;2023-05-16T06:08:48;33.90;;;22.02;;
4565;SDS011;2295;51.050;14.608;2023-05-16T06:11:17;40.40;;;23.63;;
4565;SDS011;2295;51.050;14.608;2023-05-16T06:13:45;33.13;;;23.00;;
4565;SDS011;2295;51.050;14.608;2023-05-16T06:16:13;36.55;;;22.98;;
4565;SDS011;2295;51.050;14.608;2023-05-16T06:18:43;35.08;;;23.13;;
4565;SDS011;2295;51.050;14.608;2023-05-16T06:21:12;34.20;;;22.63;;
4565;SDS011;2295;51.050;14.608;2023-05-16T06:23:40;29.05;;;20.75;;
4565;SDS011;2295;51.050;14.608;2023-05-16T06:26:08;31.40;;;20.45;;
4565;SDS011;2295;51.050;14.608;2023-05-16T06:28:37;35.40;;;20.42;;
4565;SDS011;2295;51.050;14.608;2023-05-16T06:31:05;41.58;;;22.85;;
4565;SDS011;2295;51.050;14.608;2023-05-16T06:33:33;34.58;;;21.83;;
4565;SDS011;2295;51.050;14.608;2023-05-16T06:36:03;31.65;;;21.10;;
4565;SDS011;2295;51.050;14.608;2023-05-16T06:38:32;34.33;;;21.60;;
4565;SDS011;2295;51.050;14.608;2023-05-16T06:41:00;29.40;;;21.33;;
4565;SDS011;2295;51.050;14.608;2023-05-16T06:43:28;43.17;;;23.10;;
4565;SDS011;2295;51.050;14.608;2023-05-16T06:45:56;35.35;;;21.88;;
4565;SDS011;2295;51.050;14.608;2023-05-16T06:48:25;26.30;;;19.70;;
4565;SDS011;2295;51.050;14.608;2023-05-16T06:50:54;34.67;;;20.48;;
4565;SDS011;2295;51.050;14.608;2023-05-16T06:53:24;27.90;;;19.63;;
4565;SDS011;2295;51.050;14.608;2023-05-16T06:55:52;30.80;;;21.30;;
4565;SDS011;2295;51.050;14.608;2023-05-16T06:58:21;29.83;;;21.92;;
4565;SDS011;2295;51.050;14.608;2023-05-16T07:00:49;43.17;;;22.15;;
4565;SDS011;2295;51.050;14.608;2023-05-16T07:03:18;36.58;;;21.70;;
4565;SDS011;2295;51.050;14.608;2023-05-16T07:05:46;30.48;;;20.75;;
4565;SDS011;2295;51.050;14.608;2023-05-16T07:08:16;31.70;;;20.90;;
4565;SDS011;2295;51.050;14.608;2023-05-16T07:10:46;32.85;;;21.45;;
4565;SDS011;2295;51.050;14.608;2023-05-16T07:13:14;32.85;;;20.70;;
4565;SDS011;2295;51.050;14.608;2023-05-16T07:15:43;31.60;;;21.65;;
4565;SDS011;2295;51.050;14.608;2023-05-16T07:18:11;32.63;;;21.05;;
4565;SDS011;2295;51.050;14.608;2023-05-16T07:20:39;29.98;;;19.77;;
4565;SDS011;2295;51.050;14.608;2023-05-16T07:23:08;34.05;;;22.08;;
4565;SDS011;2295;51.050;14.608;2023-05-16T07:25:36;35.67;;;23.15;;
4565;SDS011;2295;51.050;14.608;2023-05-16T07:28:06;35.55;;;21.92;;
4565;SDS011;2295;51.050;14.608;2023-05-16T07:30:34;30.98;;;21.20;;
4565;SDS011;2295;51.050;14.608;2023-05-16T07:33:02;34.03;;;21.95;;
4565;SDS011;2295;51.050;14.608;2023-05-16T07:35:31;34.33;;;22.15;;
4565;SDS011;2295;51.050;14.608;2023-05-16T07:37:59;30.52;;;20.13;;
4565;SDS011;2295;51.050;14.608;2023-05-16T07:40:27;33.13;;;21.27;;
4565;SDS011;2295;51.050;14.608;2023-05-16T07:42:56;34.55;;;20.42;;
4565;SDS011;2295;51.050;14.608;2023-05-16T07:45:26;36.85;;;21.92;;
4565;SDS011;2295;51.050;14.608;2023-05-16T07:47:55;39.03;;;24.50;;
4565;SDS011;2295;51.050;14.608;2023-05-16T07:50:25;36.63;;;24.15;;
4565;SDS011;2295;51.050;14.608;2023-05-16T07:52:53;42.45;;;24.52;;
4565;SDS011;2295;51.050;14.608;2023-05-16T07:55:22;37.88;;;24.75;;
4565;SDS011;2295;51.050;14.608;2023-05-16T07:57:50;40.25;;;24.80;;
4565;SDS011;2295;51.050;14.608;2023-05-16T08:00:19;39.90;;;23.67;;
4565;SDS011;2295;51.050;14.608;2023-05-16T08:02:49;37.65;;;23.77;;
4565;SDS011;2295;51.050;14.608;2023-05-16T08:05:18;37.95;;;24.45;;
4565;SDS011;2295;51.050;14.608;2023-05-16T08:07:46;37.35;;;23.30;;
4565;SDS011;2295;51.050;14.608;2023-05-16T08:10:16;38.90;;;23.92;;
4565;SDS011;2295;51.050;14.608;2023-05-16T08:12:45;35.20;;;23.10;;
4565;SDS011;2295;51.050;14.608;2023-05-16T08:15:13;40.60;;;23.63;;
4565;SDS011;2295;51.050;14.608;2023-05-16T08:17:42;37.38;;;23.15;;
4565;SDS011;2295;51.050;14.608;2023-05-16T08:20:12;46.03;;;25.50;;
4565;SDS011;2295;51.050;14.608;2023-05-16T08:22:40;43.00;;;24.58;;
4565;SDS011;2295;51.050;14.608;2023-05-16T08:25:09;41.88;;;24.55;;
4565;SDS011;2295;51.050;14.608;2023-05-16T08:27:37;43.53;;;24.05;;
4565;SDS011;2295;51.050;14.608;2023-05-16T08:30:06;43.63;;;25.42;;
4565;SDS011;2295;51.050;14.608;2023-05-16T08:32:36;43.17;;;25.10;;
4565;SDS011;2295;51.050;14.608;2023-05-16T08:35:05;44.92;;;25.40;;
4565;SDS011;2295;51.050;14.608;2023-05-16T08:37:36;48.90;;;25.98;;
4565;SDS011;2295;51.050;14.608;2023-05-16T08:40:06;41.58;;;24.48;;
4565;SDS011;2295;51.050;14.608;2023-05-16T08:42:36;45.25;;;25.80;;
4565;SDS011;2295;51.050;14.608;2023-05-16T08:45:07;43.47;;;26.05;;
4565;SDS011;2295;51.050;14.608;2023-05-16T08:47:36;47.80;;;27.13;;
4565;SDS011;2295;51.050;14.608;2023-05-16T08:50:08;52.30;;;27.77;;
4565;SDS011;2295;51.050;14.608;2023-05-16T08:52:38;42.60;;;26.05;;
4565;SDS011;2295;51.050;14.608;2023-05-16T08:55:10;46.60;;;27.42;;
4565;SDS011;2295;51.050;14.608;2023-05-16T08:57:39;45.70;;;26.75;;
4565;SDS011;2295;51.050;14.608;2023-05-16T09:00:09;54.15;;;26.50;;
4565;SDS011;2295;51.050;14.608;2023-05-16T09:02:38;49.95;;;27.75;;
4565;SDS011;2295;51.050;14.608;2023-05-16T09:05:08;45.30;;;27.27;;
4565;SDS011;2295;51.050;14.608;2023-05-16T09:07:40;45.90;;;26.70;;
4565;SDS011;2295;51.050;14.608;2023-05-16T09:10:09;46.35;;;26.50;;
4565;SDS011;2295;51.050;14.608;2023-05-16T09:12:38;50.97;;;27.75;;
4565;SDS011;2295;51.050;14.608;2023-05-16T09:15:08;48.60;;;27.35;;
4565;SDS011;2295;51.050;14.608;2023-05-16T09:17:37;52.33;;;27.90;;
4565;SDS011;2295;51.050;14.608;2023-05-16T09:20:08;48.38;;;27.40;;
4565;SDS011;2295;51.050;14.608;2023-05-16T09:22:37;56.20;;;29.95;;
4565;SDS011;2295;51.050;14.608;2023-05-16T09:25:16;49.88;;;27.73;;
4565;SDS011;2295;51.050;14.608;2023-05-16T09:27:56;48.35;;;27.35;;
4565;SDS011;2295;51.050;14.608;2023-05-16T09:30:28;46.28;;;26.13;;
4565;SDS011;2295;51.050;14.608;2023-05-16T09:32:59;46.78;;;26.55;;
4565;SDS011;2295;51.050;14.608;2023-05-16T09:35:27;44.58;;;26.55;;
4565;SDS011;2295;51.050;14.608;2023-05-16T09:38:14;42.83;;;25.98;;
4565;SDS011;2295;51.050;14.608;2023-05-16T09:40:43;47.55;;;25.88;;
4565;SDS011;2295;51.050;14.608;2023-05-16T09:43:13;50.80;;;27.95;;
4565;SDS011;2295;51.050;14.608;2023-05-16T09:45:47;46.10;;;25.98;;
4565;SDS011;2295;51.050;14.608;2023-05-16T09:48:15;45.20;;;26.77;;
4565;SDS011;2295;51.050;14.608;2023-05-16T09:50:48;42.55;;;25.65;;
4565;SDS011;2295;51.050;14.608;2023-05-16T09:53:25;52.80;;;27.58;;
4565;SDS011;2295;51.050;14.608;2023-05-16T09:56:00;47.53;;;26.80;;
4565;SDS011;2295;51.050;14.608;2023-05-16T09:58:30;52.92;;;29.95;;
4565;SDS011;2295;51.050;14.608;2023-05-16T10:01:02;50.13;;;27.83;;
4565;SDS011;2295;51.050;14.608;2023-05-16T10:03:33;46.95;;;27.35;;
4565;SDS011;2295;51.050;14.608;2023-05-16T10:06:02;53.60;;;28.77;;
4565;SDS011;2295;51.050;14.608;2023-05-16T10:08:34;56.85;;;28.67;;
4565;SDS011;2295;51.050;14.608;2023-05-16T10:11:03;49.08;;;26.67;;
4565;SDS011;2295;51.050;14.608;2023-05-16T10:13:33;50.00;;;27.08;;
4565;SDS011;2295;51.050;14.608;2023-05-16T10:16:05;53.00;;;27.58;;
4565;SDS011;2295;51.050;14.608;2023-05-16T10:18:34;48.85;;;27.65;;
4565;SDS011;2295;51.050;14.608;2023-05-16T10:21:05;55.40;;;27.10;;
4565;SDS011;2295;51.050;14.608;2023-05-16T10:23:39;47.45;;;25.70;;
4565;SDS011;2295;51.050;14.608;2023-05-16T10:26:09;51.88;;;26.27;;
4565;SDS011;2295;51.050;14.608;2023-05-16T10:28:40;41.60;;;25.35;;
4565;SDS011;2295;51.050;14.608;2023-05-16T10:31:09;50.08;;;26.05;;
4565;SDS011;2295;51.050;14.608;2023-05-16T10:33:37;46.88;;;24.92;;
4565;SDS011;2295;51.050;14.608;2023-05-16T10:36:09;50.47;;;28.70;;
4565;SDS011;2295;51.050;14.608;2023-05-16T10:38:40;50.20;;;28.60;;
4565;SDS011;2295;51.050;14.608;2023-05-16T10:41:09;52.35;;;26.17;;
4565;SDS011;2295;51.050;14.608;2023-05-16T10:43:38;50.63;;;26.60;;
4565;SDS011;2295;51.050;14.608;2023-05-16T10:46:10;45.78;;;26.08;;
4565;SDS011;2295;51.050;14.608;2023-05-16T10:48:40;45.90;;;26.90;;
4565;SDS011;2295;51.050;14.608;2023-05-16T10:54:07;42.88;;;24.33;;
4565;SDS011;2295;51.050;14.608;2023-05-16T10:56:36;41.38;;;24.80;;
4565;SDS011;2295;51.050;14.608;2023-05-16T10:59:05;43.70;;;25.60;;
4565;SDS011;2295;51.050;14.608;2023-05-16T11:01:51;44.83;;;24.00;;
4565;SDS011;2295;51.050;14.608;2023-05-16T11:04:20;38.30;;;23.75;;
4565;SDS011;2295;51.050;14.608;2023-05-16T11:06:49;42.00;;;22.90;;
4565;SDS011;2295;51.050;14.608;2023-05-16T11:09:24;36.40;;;20.95;;
4565;SDS011;2295;51.050;14.608;2023-05-16T11:12:02;37.55;;;21.35;;
4565;SDS011;2295;51.050;14.608;2023-05-16T11:14:35;36.97;;;21.67;;
4565;SDS011;2295;51.050;14.608;2023-05-16T11:17:09;37.58;;;20.73;;
4565;SDS011;2295;51.050;14.608;2023-05-16T11:19:39;35.05;;;21.55;;
4565;SDS011;2295;51.050;14.608;2023-05-16T11:22:12;38.70;;;21.48;;
4565;SDS011;2295;51.050;14.608;2023-05-16T11:24:53;33.70;;;19.40;;
4565;SDS011;2295;51.050;14.608;2023-05-16T11:27:24;34.00;;;19.15;;
4565;SDS011;2295;51.050;14.608;2023-05-16T11:29:57;29.65;;;18.08;;
4565;SDS011;2295;51.050;14.608;2023-05-16T11:32:30;35.40;;;20.15;;
4565;SDS011;2295;51.050;14.608;2023-05-16T11:35:01;34.22;;;20.02;;
4565;SDS011;2295;51.050;14.608;2023-05-16T11:37:33;37.75;;;19.95;;
4565;SDS011;2295;51.050;14.608;2023-05-16T11:40:05;32.80;;;19.70;;
4565;SDS011;2295;51.050;14.608;2023-05-16T11:42:37;33.58;;;20.50;;
4565;SDS011;2295;51.050;14.608;2023-05-16T11:45:07;34.33;;;19.75;;
4565;SDS011;2295;51.050;14.608;2023-05-16T11:47:37;35.55;;;20.92;;
4565;SDS011;2295;51.050;14.608;2023-05-16T11:50:09;35.10;;;20.85;;
4565;SDS011;2295;51.050;14.608;2023-05-16T11:52:39;33.95;;;21.05;;
4565;SDS011;2295;51.050;14.608;2023-05-16T11:55:12;38.42;;;22.08;;
4565;SDS011;2295;51.050;14.608;2023-05-16T11:57:58;40.30;;;24.50;;
4565;SDS011;2295;51.050;14.608;2023-05-16T12:00:27;30.70;;;19.45;;
4565;SDS011;2295;51.050;14.608;2023-05-16T12:02:59;24.80;;;16.27;;
4565;SDS011;2295;51.050;14.608;2023-05-16T12:05:31;32.85;;;17.27;;
4565;SDS011;2295;51.050;14.608;2023-05-16T12:08:01;30.48;;;16.33;;
4565;SDS011;2295;51.050;14.608;2023-05-16T12:10:32;26.08;;;16.80;;
4565;SDS011;2295;51.050;14.608;2023-05-16T12:13:01;27.63;;;15.80;;
4565;SDS011;2295;51.050;14.608;2023-05-16T12:15:30;31.88;;;18.85;;
4565;SDS011;2295;51.050;14.608;2023-05-16T12:17:58;25.65;;;16.65;;
4565;SDS011;2295;51.050;14.608;2023-05-16T12:20:27;30.00;;;19.23;;
4565;SDS011;2295;51.050;14.608;2023-05-16T12:22:59;24.20;;;15.68;;
4565;SDS011;2295;51.050;14.608;2023-05-16T12:25:28;24.90;;;15.80;;
4565;SDS011;2295;51.050;14.608;2023-05-16T12:28:03;21.67;;;15.30;;
4565;SDS011;2295;51.050;14.608;2023-05-16T12:30:33;25.27;;;15.73;;
4565;SDS011;2295;51.050;14.608;2023-05-16T12:33:01;27.90;;;16.92;;
4565;SDS011;2295;51.050;14.608;2023-05-16T12:35:36;20.85;;;14.20;;
4565;SDS011;2295;51.050;14.608;2023-05-16T12:38:06;29.77;;;15.95;;
4565;SDS011;2295;51.050;14.608;2023-05-16T12:40:36;27.65;;;14.48;;
4565;SDS011;2295;51.050;14.608;2023-05-16T12:43:11;28.20;;;16.38;;
4565;SDS011;2295;51.050;14.608;2023-05-16T12:45:40;27.55;;;15.43;;
4565;SDS011;2295;51.050;14.608;2023-05-16T12:48:11;23.77;;;15.15;;
4565;SDS011;2295;51.050;14.608;2023-05-16T12:50:43;26.95;;;15.88;;
4565;SDS011;2295;51.050;14.608;2023-05-16T12:53:12;26.65;;;16.65;;
4565;SDS011;2295;51.050;14.608;2023-05-16T12:55:42;31.10;;;15.50;;
4565;SDS011;2295;51.050;14.608;2023-05-16T12:58:12;25.10;;;15.20;;
4565;SDS011;2295;51.050;14.608;2023-05-16T13:00:41;30.92;;;15.43;;
4565;SDS011;2295;51.050;14.608;2023-05-16T13:03:10;24.60;;;15.68;;
4565;SDS011;2295;51.050;14.608;2023-05-16T13:05:38;24.58;;;15.55;;
4565;SDS011;2295;51.050;14.608;2023-05-16T13:08:07;29.25;;;15.93;;
4565;SDS011;2295;51.050;14.608;2023-05-16T13:10:38;31.05;;;16.80;;
4565;SDS011;2295;51.050;14.608;2023-05-16T13:13:06;26.55;;;15.45;;
4565;SDS011;2295;51.050;14.608;2023-05-16T13:15:36;31.17;;;17.63;;
4565;SDS011;2295;51.050;14.608;2023-05-16T13:18:10;29.80;;;16.20;;
4565;SDS011;2295;51.050;14.608;2023-05-16T13:20:38;26.05;;;14.38;;
4565;SDS011;2295;51.050;14.608;2023-05-16T13:23:07;24.35;;;14.65;;
4565;SDS011;2295;51.050;14.608;2023-05-16T13:25:35;22.60;;;14.27;;
4565;SDS011;2295;51.050;14.608;2023-05-16T13:28:04;25.10;;;13.60;;
4565;SDS011;2295;51.050;14.608;2023-05-16T13:30:37;23.25;;;14.30;;
4565;SDS011;2295;51.050;14.608;2023-05-16T13:33:06;17.67;;;12.52;;
4565;SDS011;2295;51.050;14.608;2023-05-16T13:35:34;19.13;;;12.63;;
4565;SDS011;2295;51.050;14.608;2023-05-16T13:38:02;16.42;;;11.27;;
4565;SDS011;2295;51.050;14.608;2023-05-16T13:40:31;19.13;;;11.80;;
4565;SDS011;2295;51.050;14.608;2023-05-16T13:42:59;17.55;;;11.23;;
4565;SDS011;2295;51.050;14.608;2023-05-16T13:45:28;21.83;;;11.10;;
4565;SDS011;2295;51.050;14.608;2023-05-16T13:47:58;15.38;;;11.85;;
4565;SDS011;2295;51.050;14.608;2023-05-16T13:50:27;18.30;;;11.15;;
4565;SDS011;2295;51.050;14.608;2023-05-16T13:52:58;16.88;;;11.48;;
4565;SDS011;2295;51.050;14.608;2023-05-16T13:55:26;15.75;;;11.25;;
4565;SDS011;2295;51.050;14.608;2023-05-16T13:57:55;16.83;;;10.82;;
4565;SDS011;2295;51.050;14.608;2023-05-16T14:00:23;14.18;;;10.18;;
4565;SDS011;2295;51.050;14.608;2023-05-16T14:03:11;14.45;;;10.10;;
4565;SDS011;2295;51.050;14.608;2023-05-16T14:05:43;18.55;;;11.00;;
4565;SDS011;2295;51.050;14.608;2023-05-16T14:08:11;14.30;;;9.88;;
4565;SDS011;2295;51.050;14.608;2023-05-16T14:10:39;24.95;;;10.63;;
4565;SDS011;2295;51.050;14.608;2023-05-16T14:13:08;10.65;;;8.88;;
4565;SDS011;2295;51.050;14.608;2023-05-16T14:15:36;11.52;;;9.15;;
4565;SDS011;2295;51.050;14.608;2023-05-16T14:18:04;16.70;;;10.13;;
4565;SDS011;2295;51.050;14.608;2023-05-16T14:20:34;12.65;;;9.25;;
4565;SDS011;2295;51.050;14.608;2023-05-16T14:23:02;14.35;;;9.93;;
4565;SDS011;2295;51.050;14.608;2023-05-16T14:25:30;11.82;;;8.68;;
4565;SDS011;2295;51.050;14.608;2023-05-16T14:27:59;18.73;;;8.88;;
4565;SDS011;2295;51.050;14.608;2023-05-16T14:30:30;11.40;;;8.77;;
4565;SDS011;2295;51.050;14.608;2023-05-16T14:32:58;14.68;;;8.88;;
4565;SDS011;2295;51.050;14.608;2023-05-16T14:35:28;18.92;;;10.20;;
4565;SDS011;2295;51.050;14.608;2023-05-16T14:37:58;16.30;;;11.35;;
4565;SDS011;2295;51.050;14.608;2023-05-16T14:40:27;22.38;;;9.75;;
4565;SDS011;2295;51.050;14.608;2023-05-16T14:42:55;10.20;;;8.07;;
4565;SDS011;2295;51.050;14.608;2023-05-16T14:45:24;15.23;;;8.77;;
4565;SDS011;2295;51.050;14.608;2023-05-16T14:47:52;10.55;;;8.90;;
4565;SDS011;2295;51.050;14.608;2023-05-16T14:50:21;10.85;;;8.60;;
4565;SDS011;2295;51.050;14.608;2023-05-16T14:52:49;12.95;;;8.95;;
4565;SDS011;2295;51.050;14.608;2023-05-16T14:55:19;12.70;;;8.35;;